Ferndale, California
Current Conditions -  °F | °C
As of 12:50 AM on Saturday 25 Oct 2014 (Local Time) from KFOT Reporting Station
Overcast Overcast  
Wind Chill: 59°   Ceiling: 3300
Heat Index: 59°   Visibility: 5mi
Dew Point: 54°   Wind: 17mph
Humidity: 82%   Direction: 150°SSE
Pressure: 29.67"   Gusts: 28mph
Location:  40.58°N, 124.26°W
Report Text: KFOT 250750Z AUTO 15015G24KT 5SM FEW026 BKN033 OVC041 15/12 A2967 RMK AO1
Loading
Personal Weather Stations






























Interactive Weather Map
Tropical Storm Tracking
New forecast layout! Learn more

10-Day Weather Forecast

Advertisements
Track Severe Weather on mobile